Allendale, Indiana
Current Conditions -  °F | °C
As of 2:53 AM on Sunday 23 Nov 2014 (Local Time) from KHUF Reporting Station
Broken Clouds Broken Clouds  
Wind Chill: 45°   Ceiling: 8500
Heat Index: 49°   Visibility: 10mi
Dew Point: 39°   Wind: 9mph
Humidity: 69%   Direction: 160°SSE
Pressure: 29.93"   Gusts: NA
Location:  39.3587°N, 87.4056°W
Report Text: KHUF 230753Z 16008KT 10SM BKN085 09/04 A2993 RMK AO2 SLP135 T00940039
Loading
Personal Weather Stations






























Interactive Weather Map New forecast layout! Learn more

10-Day Weather Forecast

Advertisements
Track Severe Weather on mobile